sensor_id;sensor_type;location;lat;lon;timestamp;temperature;humidity
52941;DHT22;62001;53.366;6.636;2022-08-19T00:01:31;14.50;99.90
52941;DHT22;62001;53.366;6.636;2022-08-19T00:03:59;14.40;99.90
52941;DHT22;62001;53.366;6.636;2022-08-19T00:06:27;14.40;99.90
52941;DHT22;62001;53.366;6.636;2022-08-19T00:08:54;14.40;99.90
52941;DHT22;62001;53.366;6.636;2022-08-19T00:11:21;14.40;99.90
52941;DHT22;62001;53.366;6.636;2022-08-19T00:13:46;14.40;99.90
52941;DHT22;62001;53.366;6.636;2022-08-19T00:16:14;14.50;99.90
52941;DHT22;62001;53.366;6.636;2022-08-19T00:18:40;14.50;99.90
52941;DHT22;62001;53.366;6.636;2022-08-19T00:21:06;14.50;99.90
52941;DHT22;62001;53.366;6.636;2022-08-19T00:23:33;14.50;99.90
52941;DHT22;62001;53.366;6.636;2022-08-19T00:26:00;14.60;99.90
52941;DHT22;62001;53.366;6.636;2022-08-19T00:28:26;14.60;99.90
52941;DHT22;62001;53.366;6.636;2022-08-19T00:30:52;14.60;99.90
52941;DHT22;62001;53.366;6.636;2022-08-19T00:33:19;14.60;99.90
52941;DHT22;62001;53.366;6.636;2022-08-19T00:35:45;14.60;99.90
52941;DHT22;62001;53.366;6.636;2022-08-19T00:38:10;14.60;99.90
52941;DHT22;62001;53.366;6.636;2022-08-19T00:40:36;14.60;99.90
52941;DHT22;62001;53.366;6.636;2022-08-19T00:43:08;14.70;99.90
52941;DHT22;62001;53.366;6.636;2022-08-19T00:45:34;14.70;99.90
52941;DHT22;62001;53.366;6.636;2022-08-19T00:48:01;14.70;99.90
52941;DHT22;62001;53.366;6.636;2022-08-19T00:50:29;14.70;99.90
52941;DHT22;62001;53.366;6.636;2022-08-19T00:52:56;14.70;99.90
52941;DHT22;62001;53.366;6.636;2022-08-19T00:55:26;14.70;99.90
52941;DHT22;62001;53.366;6.636;2022-08-19T00:57:58;14.70;99.90
52941;DHT22;62001;53.366;6.636;2022-08-19T01:00:28;14.70;99.90
52941;DHT22;62001;53.366;6.636;2022-08-19T01:02:54;14.60;99.90
52941;DHT22;62001;53.366;6.636;2022-08-19T01:05:23;14.60;99.90
52941;DHT22;62001;53.366;6.636;2022-08-19T01:07:50;14.50;99.90
52941;DHT22;62001;53.366;6.636;2022-08-19T01:10:19;14.50;99.90
52941;DHT22;62001;53.366;6.636;2022-08-19T01:12:47;14.40;99.90
52941;DHT22;62001;53.366;6.636;2022-08-19T01:15:16;14.30;99.90
52941;DHT22;62001;53.366;6.636;2022-08-19T01:17:43;14.20;99.90
52941;DHT22;62001;53.366;6.636;2022-08-19T01:20:16;14.10;99.90
52941;DHT22;62001;53.366;6.636;2022-08-19T01:22:47;13.90;99.90
52941;DHT22;62001;53.366;6.636;2022-08-19T01:25:16;13.80;99.90
52941;DHT22;62001;53.366;6.636;2022-08-19T01:27:45;13.60;99.90
52941;DHT22;62001;53.366;6.636;2022-08-19T01:30:23;13.50;99.90
52941;DHT22;62001;53.366;6.636;2022-08-19T01:32:51;13.50;99.90
52941;DHT22;62001;53.366;6.636;2022-08-19T01:35:17;13.40;99.90
52941;DHT22;62001;53.366;6.636;2022-08-19T01:37:52;13.50;99.90
52941;DHT22;62001;53.366;6.636;2022-08-19T01:40:20;13.60;99.90
52941;DHT22;62001;53.366;6.636;2022-08-19T01:42:48;13.60;99.90
52941;DHT22;62001;53.366;6.636;2022-08-19T01:45:14;13.70;99.90
52941;DHT22;62001;53.366;6.636;2022-08-19T01:47:40;13.80;99.90
52941;DHT22;62001;53.366;6.636;2022-08-19T01:50:08;13.90;99.90
52941;DHT22;62001;53.366;6.636;2022-08-19T01:52:36;14.00;99.90
52941;DHT22;62001;53.366;6.636;2022-08-19T01:55:04;14.10;99.90
52941;DHT22;62001;53.366;6.636;2022-08-19T01:57:30;14.10;99.90
52941;DHT22;62001;53.366;6.636;2022-08-19T01:59:56;14.10;99.90
52941;DHT22;62001;53.366;6.636;2022-08-19T02:02:22;14.10;99.90
52941;DHT22;62001;53.366;6.636;2022-08-19T02:04:48;14.10;99.90
52941;DHT22;62001;53.366;6.636;2022-08-19T02:07:14;14.00;99.90
52941;DHT22;62001;53.366;6.636;2022-08-19T02:09:40;14.00;99.90
52941;DHT22;62001;53.366;6.636;2022-08-19T02:12:07;13.90;99.90
52941;DHT22;62001;53.366;6.636;2022-08-19T02:14:35;14.00;99.90
52941;DHT22;62001;53.366;6.636;2022-08-19T02:17:01;14.00;99.90
52941;DHT22;62001;53.366;6.636;2022-08-19T02:19:27;14.10;99.90
52941;DHT22;62001;53.366;6.636;2022-08-19T02:21:53;14.10;99.90
52941;DHT22;62001;53.366;6.636;2022-08-19T02:24:19;14.00;99.90
52941;DHT22;62001;53.366;6.636;2022-08-19T02:26:45;14.00;99.90
52941;DHT22;62001;53.366;6.636;2022-08-19T02:29:10;14.10;99.90
52941;DHT22;62001;53.366;6.636;2022-08-19T02:31:36;14.20;99.90
52941;DHT22;62001;53.366;6.636;2022-08-19T02:34:02;14.30;99.90
52941;DHT22;62001;53.366;6.636;2022-08-19T02:36:28;14.30;99.90
52941;DHT22;62001;53.366;6.636;2022-08-19T02:38:55;14.40;99.90
52941;DHT22;62001;53.366;6.636;2022-08-19T02:41:25;14.40;99.90
52941;DHT22;62001;53.366;6.636;2022-08-19T02:43:52;14.50;99.90
52941;DHT22;62001;53.366;6.636;2022-08-19T02:46:22;14.50;99.90
52941;DHT22;62001;53.366;6.636;2022-08-19T02:48:48;14.50;99.90
52941;DHT22;62001;53.366;6.636;2022-08-19T02:51:23;14.50;99.90
52941;DHT22;62001;53.366;6.636;2022-08-19T02:53:50;14.50;99.90
52941;DHT22;62001;53.366;6.636;2022-08-19T02:56:16;14.60;99.90
52941;DHT22;62001;53.366;6.636;2022-08-19T02:58:42;14.60;99.90
52941;DHT22;62001;53.366;6.636;2022-08-19T03:01:08;14.60;99.90
52941;DHT22;62001;53.366;6.636;2022-08-19T03:03:35;14.60;99.90
52941;DHT22;62001;53.366;6.636;2022-08-19T03:06:13;14.60;99.90
52941;DHT22;62001;53.366;6.636;2022-08-19T03:08:44;14.60;99.90
52941;DHT22;62001;53.366;6.636;2022-08-19T03:11:20;14.60;99.90
52941;DHT22;62001;53.366;6.636;2022-08-19T03:13:47;14.70;99.90
52941;DHT22;62001;53.366;6.636;2022-08-19T03:16:15;14.60;99.90
52941;DHT22;62001;53.366;6.636;2022-08-19T03:18:41;14.70;99.90
52941;DHT22;62001;53.366;6.636;2022-08-19T03:21:07;14.60;99.90
52941;DHT22;62001;53.366;6.636;2022-08-19T03:23:34;14.60;99.90
52941;DHT22;62001;53.366;6.636;2022-08-19T03:26:04;14.60;99.90
52941;DHT22;62001;53.366;6.636;2022-08-19T03:28:31;14.60;99.90
52941;DHT22;62001;53.366;6.636;2022-08-19T03:31:02;14.50;99.90
52941;DHT22;62001;53.366;6.636;2022-08-19T03:33:30;14.50;99.90
52941;DHT22;62001;53.366;6.636;2022-08-19T03:36:03;14.50;99.90
52941;DHT22;62001;53.366;6.636;2022-08-19T03:38:31;14.50;99.90
52941;DHT22;62001;53.366;6.636;2022-08-19T03:40:58;14.40;99.90
52941;DHT22;62001;53.366;6.636;2022-08-19T03:43:27;14.30;99.90
52941;DHT22;62001;53.366;6.636;2022-08-19T03:46:05;14.20;99.90
52941;DHT22;62001;53.366;6.636;2022-08-19T03:48:32;14.20;99.90
52941;DHT22;62001;53.366;6.636;2022-08-19T03:50:59;14.10;99.90
52941;DHT22;62001;53.366;6.636;2022-08-19T03:53:27;14.10;99.90
52941;DHT22;62001;53.366;6.636;2022-08-19T03:55:53;14.20;99.90
52941;DHT22;62001;53.366;6.636;2022-08-19T03:58:20;14.20;99.90
52941;DHT22;62001;53.366;6.636;2022-08-19T04:00:46;14.30;99.90
52941;DHT22;62001;53.366;6.636;2022-08-19T04:03:12;14.30;99.90
52941;DHT22;62001;53.366;6.636;2022-08-19T04:05:38;14.40;99.90
52941;DHT22;62001;53.366;6.636;2022-08-19T04:08:04;14.30;99.90
52941;DHT22;62001;53.366;6.636;2022-08-19T04:10:40;14.30;99.90
52941;DHT22;62001;53.366;6.636;2022-08-19T04:13:07;14.20;99.90
52941;DHT22;62001;53.366;6.636;2022-08-19T04:15:41;14.10;99.90
52941;DHT22;62001;53.366;6.636;2022-08-19T04:18:09;14.00;99.90
52941;DHT22;62001;53.366;6.636;2022-08-19T04:20:46;13.90;99.90
52941;DHT22;62001;53.366;6.636;2022-08-19T04:23:13;13.70;99.90
52941;DHT22;62001;53.366;6.636;2022-08-19T04:25:43;13.70;99.90
52941;DHT22;62001;53.366;6.636;2022-08-19T04:28:11;13.60;99.90
52941;DHT22;62001;53.366;6.636;2022-08-19T04:30:42;13.50;99.90
52941;DHT22;62001;53.366;6.636;2022-08-19T04:33:09;13.50;99.90
52941;DHT22;62001;53.366;6.636;2022-08-19T04:35:40;13.40;99.90
52941;DHT22;62001;53.366;6.636;2022-08-19T04:38:07;13.40;99.90
52941;DHT22;62001;53.366;6.636;2022-08-19T04:40:33;13.40;99.90
52941;DHT22;62001;53.366;6.636;2022-08-19T04:43:17;13.30;99.90
52941;DHT22;62001;53.366;6.636;2022-08-19T04:45:44;13.30;99.90
52941;DHT22;62001;53.366;6.636;2022-08-19T04:48:11;13.30;99.90
52941;DHT22;62001;53.366;6.636;2022-08-19T04:50:42;13.20;99.90
52941;DHT22;62001;53.366;6.636;2022-08-19T04:53:09;13.10;99.90
52941;DHT22;62001;53.366;6.636;2022-08-19T04:55:39;13.10;99.90
52941;DHT22;62001;53.366;6.636;2022-08-19T04:58:06;13.10;99.90
52941;DHT22;62001;53.366;6.636;2022-08-19T05:00:32;13.10;99.90
52941;DHT22;62001;53.366;6.636;2022-08-19T05:02:58;13.20;99.90
52941;DHT22;62001;53.366;6.636;2022-08-19T05:05:23;13.30;99.90
52941;DHT22;62001;53.366;6.636;2022-08-19T05:07:49;13.40;99.90
52941;DHT22;62001;53.366;6.636;2022-08-19T05:10:15;13.60;99.90
52941;DHT22;62001;53.366;6.636;2022-08-19T05:12:41;13.90;99.90
52941;DHT22;62001;53.366;6.636;2022-08-19T05:15:07;14.10;99.90
52941;DHT22;62001;53.366;6.636;2022-08-19T05:17:36;14.40;99.90
52941;DHT22;62001;53.366;6.636;2022-08-19T05:20:04;14.80;99.90
52941;DHT22;62001;53.366;6.636;2022-08-19T05:22:49;15.30;99.90
52941;DHT22;62001;53.366;6.636;2022-08-19T05:25:17;15.50;99.90
52941;DHT22;62001;53.366;6.636;2022-08-19T05:27:44;15.60;99.90
52941;DHT22;62001;53.366;6.636;2022-08-19T05:30:11;15.70;99.90
52941;DHT22;62001;53.366;6.636;2022-08-19T05:32:38;16.20;99.90
52941;DHT22;62001;53.366;6.636;2022-08-19T05:35:05;16.40;99.90
52941;DHT22;62001;53.366;6.636;2022-08-19T05:37:31;16.30;99.90
52941;DHT22;62001;53.366;6.636;2022-08-19T05:39:57;16.20;99.90
52941;DHT22;62001;53.366;6.636;2022-08-19T05:42:23;16.10;99.90
52941;DHT22;62001;53.366;6.636;2022-08-19T05:44:50;16.10;99.90
52941;DHT22;62001;53.366;6.636;2022-08-19T05:47:16;16.10;99.90
52941;DHT22;62001;53.366;6.636;2022-08-19T05:49:44;16.20;99.90
52941;DHT22;62001;53.366;6.636;2022-08-19T05:52:12;16.30;99.90
52941;DHT22;62001;53.366;6.636;2022-08-19T05:54:40;16.50;99.90
52941;DHT22;62001;53.366;6.636;2022-08-19T05:57:09;16.70;99.90
52941;DHT22;62001;53.366;6.636;2022-08-19T05:59:35;16.80;99.90
52941;DHT22;62001;53.366;6.636;2022-08-19T06:02:02;16.90;99.90
52941;DHT22;62001;53.366;6.636;2022-08-19T06:04:28;17.00;99.90
52941;DHT22;62001;53.366;6.636;2022-08-19T06:06:54;17.00;99.90
52941;DHT22;62001;53.366;6.636;2022-08-19T06:09:21;17.00;99.90
52941;DHT22;62001;53.366;6.636;2022-08-19T06:11:53;17.10;99.90
52941;DHT22;62001;53.366;6.636;2022-08-19T06:14:24;17.10;99.90
52941;DHT22;62001;53.366;6.636;2022-08-19T06:16:50;17.20;99.90
52941;DHT22;62001;53.366;6.636;2022-08-19T06:19:21;17.30;99.90
52941;DHT22;62001;53.366;6.636;2022-08-19T06:21:49;17.40;99.90
52941;DHT22;62001;53.366;6.636;2022-08-19T06:24:20;17.50;99.90
52941;DHT22;62001;53.366;6.636;2022-08-19T06:26:48;17.70;99.90
52941;DHT22;62001;53.366;6.636;2022-08-19T06:29:15;17.80;99.90
52941;DHT22;62001;53.366;6.636;2022-08-19T06:31:54;17.90;99.90
52941;DHT22;62001;53.366;6.636;2022-08-19T06:34:22;18.00;99.90
52941;DHT22;62001;53.366;6.636;2022-08-19T06:36:51;18.10;99.90
52941;DHT22;62001;53.366;6.636;2022-08-19T06:39:19;18.30;99.90
52941;DHT22;62001;53.366;6.636;2022-08-19T06:41:48;18.50;99.90
52941;DHT22;62001;53.366;6.636;2022-08-19T06:44:14;18.80;99.90
52941;DHT22;62001;53.366;6.636;2022-08-19T06:46:41;19.30;99.90
52941;DHT22;62001;53.366;6.636;2022-08-19T06:49:07;19.50;99.90
52941;DHT22;62001;53.366;6.636;2022-08-19T06:51:43;20.00;99.90
52941;DHT22;62001;53.366;6.636;2022-08-19T06:54:09;20.40;99.90
52941;DHT22;62001;53.366;6.636;2022-08-19T06:56:37;20.50;99.90
52941;DHT22;62001;53.366;6.636;2022-08-19T06:59:05;20.70;99.90
52941;DHT22;62001;53.366;6.636;2022-08-19T07:01:35;21.00;99.90
52941;DHT22;62001;53.366;6.636;2022-08-19T07:04:04;21.20;99.90
52941;DHT22;62001;53.366;6.636;2022-08-19T07:06:30;21.40;99.90
52941;DHT22;62001;53.366;6.636;2022-08-19T07:08:57;21.60;99.90
52941;DHT22;62001;53.366;6.636;2022-08-19T07:11:24;21.80;99.90
52941;DHT22;62001;53.366;6.636;2022-08-19T07:13:50;21.90;99.90
52941;DHT22;62001;53.366;6.636;2022-08-19T07:16:18;22.10;99.90
52941;DHT22;62001;53.366;6.636;2022-08-19T07:18:48;22.20;99.90
52941;DHT22;62001;53.366;6.636;2022-08-19T07:21:20;22.40;99.90
52941;DHT22;62001;53.366;6.636;2022-08-19T07:23:47;22.50;99.90
52941;DHT22;62001;53.366;6.636;2022-08-19T07:26:24;22.60;99.90
52941;DHT22;62001;53.366;6.636;2022-08-19T07:28:51;22.70;99.90
52941;DHT22;62001;53.366;6.636;2022-08-19T07:31:21;22.70;99.90
52941;DHT22;62001;53.366;6.636;2022-08-19T07:33:49;22.80;99.90
52941;DHT22;62001;53.366;6.636;2022-08-19T07:36:19;22.90;99.90
52941;DHT22;62001;53.366;6.636;2022-08-19T07:38:48;23.00;99.90
52941;DHT22;62001;53.366;6.636;2022-08-19T07:41:17;23.50;99.90
52941;DHT22;62001;53.366;6.636;2022-08-19T07:43:43;24.20;99.90
52941;DHT22;62001;53.366;6.636;2022-08-19T07:46:10;24.40;99.90
52941;DHT22;62001;53.366;6.636;2022-08-19T07:48:36;24.20;99.90
52941;DHT22;62001;53.366;6.636;2022-08-19T07:51:05;24.60;99.90
52941;DHT22;62001;53.366;6.636;2022-08-19T07:53:33;25.80;99.90
52941;DHT22;62001;53.366;6.636;2022-08-19T07:55:59;27.10;99.90
52941;DHT22;62001;53.366;6.636;2022-08-19T07:58:31;28.00;99.90
52941;DHT22;62001;53.366;6.636;2022-08-19T08:00:57;27.80;99.90
52941;DHT22;62001;53.366;6.636;2022-08-19T08:03:24;27.30;99.90
52941;DHT22;62001;53.366;6.636;2022-08-19T08:06:10;26.80;99.90
52941;DHT22;62001;53.366;6.636;2022-08-19T08:08:55;26.50;99.90
52941;DHT22;62001;53.366;6.636;2022-08-19T08:11:47;26.50;99.90
52941;DHT22;62001;53.366;6.636;2022-08-19T08:14:22;27.30;99.90
52941;DHT22;62001;53.366;6.636;2022-08-19T08:16:49;28.40;99.90
52941;DHT22;62001;53.366;6.636;2022-08-19T08:19:20;28.60;99.90
52941;DHT22;62001;53.366;6.636;2022-08-19T08:21:48;28.10;99.90
52941;DHT22;62001;53.366;6.636;2022-08-19T08:24:14;27.50;99.90
52941;DHT22;62001;53.366;6.636;2022-08-19T08:26:40;27.00;99.90
52941;DHT22;62001;53.366;6.636;2022-08-19T08:29:06;26.60;99.90
52941;DHT22;62001;53.366;6.636;2022-08-19T08:31:36;26.30;99.90
52941;DHT22;62001;53.366;6.636;2022-08-19T08:34:02;26.10;99.90
52941;DHT22;62001;53.366;6.636;2022-08-19T08:36:28;25.90;99.90
52941;DHT22;62001;53.366;6.636;2022-08-19T08:38:54;25.80;99.90
52941;DHT22;62001;53.366;6.636;2022-08-19T08:43:49;25.60;99.90
52941;DHT22;62001;53.366;6.636;2022-08-19T08:46:39;25.60;99.90
52941;DHT22;62001;53.366;6.636;2022-08-19T08:52:04;25.50;99.90
52941;DHT22;62001;53.366;6.636;2022-08-19T08:54:38;25.30;99.90
52941;DHT22;62001;53.366;6.636;2022-08-19T08:57:20;25.20;99.90
52941;DHT22;62001;53.366;6.636;2022-08-19T08:59:50;25.20;99.90
52941;DHT22;62001;53.366;6.636;2022-08-19T09:02:19;25.20;99.90
52941;DHT22;62001;53.366;6.636;2022-08-19T09:04:45;25.20;99.90
52941;DHT22;62001;53.366;6.636;2022-08-19T09:10:24;25.20;99.90
52941;DHT22;62001;53.366;6.636;2022-08-19T09:15:50;25.10;99.90
52941;DHT22;62001;53.366;6.636;2022-08-19T09:18:18;25.10;99.90
52941;DHT22;62001;53.366;6.636;2022-08-19T09:20:45;25.10;99.90
52941;DHT22;62001;53.366;6.636;2022-08-19T09:23:12;25.10;99.90
52941;DHT22;62001;53.366;6.636;2022-08-19T09:25:38;25.20;99.90
52941;DHT22;62001;53.366;6.636;2022-08-19T09:28:06;25.20;99.90
52941;DHT22;62001;53.366;6.636;2022-08-19T09:30:37;25.20;99.90
52941;DHT22;62001;53.366;6.636;2022-08-19T09:33:04;25.20;99.90
52941;DHT22;62001;53.366;6.636;2022-08-19T09:35:32;25.20;99.90
52941;DHT22;62001;53.366;6.636;2022-08-19T09:37:59;25.20;99.90
52941;DHT22;62001;53.366;6.636;2022-08-19T09:40:26;25.20;99.90
52941;DHT22;62001;53.366;6.636;2022-08-19T09:42:52;25.20;99.90
52941;DHT22;62001;53.366;6.636;2022-08-19T09:45:20;25.20;99.90
52941;DHT22;62001;53.366;6.636;2022-08-19T09:47:51;25.20;99.90
52941;DHT22;62001;53.366;6.636;2022-08-19T09:50:18;25.20;99.90
52941;DHT22;62001;53.366;6.636;2022-08-19T09:52:45;25.30;99.90
52941;DHT22;62001;53.366;6.636;2022-08-19T09:55:11;25.30;99.90
52941;DHT22;62001;53.366;6.636;2022-08-19T09:57:37;25.40;99.90
52941;DHT22;62001;53.366;6.636;2022-08-19T10:00:06;25.50;99.90
52941;DHT22;62001;53.366;6.636;2022-08-19T10:02:33;25.70;99.90
52941;DHT22;62001;53.366;6.636;2022-08-19T10:04:59;25.70;99.90
52941;DHT22;62001;53.366;6.636;2022-08-19T10:07:43;25.60;99.90
52941;DHT22;62001;53.366;6.636;2022-08-19T10:10:09;25.60;99.90
52941;DHT22;62001;53.366;6.636;2022-08-19T10:12:35;25.60;99.90
52941;DHT22;62001;53.366;6.636;2022-08-19T10:15:03;25.60;99.90
52941;DHT22;62001;53.366;6.636;2022-08-19T10:17:29;25.60;99.90
52941;DHT22;62001;53.366;6.636;2022-08-19T10:19:55;25.60;99.90
52941;DHT22;62001;53.366;6.636;2022-08-19T10:22:23;25.60;99.90
52941;DHT22;62001;53.366;6.636;2022-08-19T10:24:49;25.70;99.90
52941;DHT22;62001;53.366;6.636;2022-08-19T10:27:15;25.70;99.90
52941;DHT22;62001;53.366;6.636;2022-08-19T10:29:41;25.70;99.90
52941;DHT22;62001;53.366;6.636;2022-08-19T10:32:08;25.80;99.90
52941;DHT22;62001;53.366;6.636;2022-08-19T10:34:36;25.90;99.90
52941;DHT22;62001;53.366;6.636;2022-08-19T10:37:03;25.90;99.90
52941;DHT22;62001;53.366;6.636;2022-08-19T10:39:35;25.80;99.90
52941;DHT22;62001;53.366;6.636;2022-08-19T10:42:06;25.80;99.90
52941;DHT22;62001;53.366;6.636;2022-08-19T10:44:32;25.80;99.90
52941;DHT22;62001;53.366;6.636;2022-08-19T10:46:58;25.80;99.90
52941;DHT22;62001;53.366;6.636;2022-08-19T10:49:24;25.80;99.90
52941;DHT22;62001;53.366;6.636;2022-08-19T10:51:50;25.90;99.90
52941;DHT22;62001;53.366;6.636;2022-08-19T10:54:34;25.90;99.90
52941;DHT22;62001;53.366;6.636;2022-08-19T10:57:30;25.80;99.90
52941;DHT22;62001;53.366;6.636;2022-08-19T10:59:56;25.80;99.90
52941;DHT22;62001;53.366;6.636;2022-08-19T11:02:22;25.90;99.90
52941;DHT22;62001;53.366;6.636;2022-08-19T11:04:48;25.90;99.90
52941;DHT22;62001;53.366;6.636;2022-08-19T11:07:17;26.00;99.90
52941;DHT22;62001;53.366;6.636;2022-08-19T11:09:43;26.10;99.90
52941;DHT22;62001;53.366;6.636;2022-08-19T11:12:09;26.20;99.90
52941;DHT22;62001;53.366;6.636;2022-08-19T11:14:36;26.30;99.90
52941;DHT22;62001;53.366;6.636;2022-08-19T11:17:04;26.40;99.90
52941;DHT22;62001;53.366;6.636;2022-08-19T11:19:30;26.50;99.90
52941;DHT22;62001;53.366;6.636;2022-08-19T11:21:56;26.70;99.90
52941;DHT22;62001;53.366;6.636;2022-08-19T11:24:24;26.80;99.90
52941;DHT22;62001;53.366;6.636;2022-08-19T11:26:53;26.90;99.90
52941;DHT22;62001;53.366;6.636;2022-08-19T11:29:23;27.00;99.90
52941;DHT22;62001;53.366;6.636;2022-08-19T11:31:53;27.10;99.90
52941;DHT22;62001;53.366;6.636;2022-08-19T11:34:25;27.20;99.90
52941;DHT22;62001;53.366;6.636;2022-08-19T11:36:53;27.20;99.90
52941;DHT22;62001;53.366;6.636;2022-08-19T11:39:22;27.20;99.90
52941;DHT22;62001;53.366;6.636;2022-08-19T11:41:48;27.10;99.90
52941;DHT22;62001;53.366;6.636;2022-08-19T11:44:14;27.20;99.90
52941;DHT22;62001;53.366;6.636;2022-08-19T11:46:41;27.10;99.90
52941;DHT22;62001;53.366;6.636;2022-08-19T11:49:09;27.20;99.90
52941;DHT22;62001;53.366;6.636;2022-08-19T11:51:34;27.20;99.90
52941;DHT22;62001;53.366;6.636;2022-08-19T11:54:01;27.20;99.90
52941;DHT22;62001;53.366;6.636;2022-08-19T11:56:27;27.20;99.90
52941;DHT22;62001;53.366;6.636;2022-08-19T11:58:54;27.30;99.90
52941;DHT22;62001;53.366;6.636;2022-08-19T12:01:21;27.40;99.90
52941;DHT22;62001;53.366;6.636;2022-08-19T12:03:49;27.40;99.90
52941;DHT22;62001;53.366;6.636;2022-08-19T12:06:23;27.40;99.90
52941;DHT22;62001;53.366;6.636;2022-08-19T12:08:51;27.40;99.90
52941;DHT22;62001;53.366;6.636;2022-08-19T12:11:17;27.40;99.90
52941;DHT22;62001;53.366;6.636;2022-08-19T12:13:50;27.50;99.90
52941;DHT22;62001;53.366;6.636;2022-08-19T12:16:18;27.40;99.90
52941;DHT22;62001;53.366;6.636;2022-08-19T12:18:45;27.40;99.90
52941;DHT22;62001;53.366;6.636;2022-08-19T12:21:20;27.30;99.90
52941;DHT22;62001;53.366;6.636;2022-08-19T12:23:48;27.30;99.90
52941;DHT22;62001;53.366;6.636;2022-08-19T12:26:15;27.30;99.90
52941;DHT22;62001;53.366;6.636;2022-08-19T12:28:42;27.30;99.90
52941;DHT22;62001;53.366;6.636;2022-08-19T12:31:09;27.30;99.90
52941;DHT22;62001;53.366;6.636;2022-08-19T12:33:37;27.30;99.90
52941;DHT22;62001;53.366;6.636;2022-08-19T12:36:05;27.30;99.90
52941;DHT22;62001;53.366;6.636;2022-08-19T12:38:32;27.30;99.90
52941;DHT22;62001;53.366;6.636;2022-08-19T12:40:59;27.30;99.90
52941;DHT22;62001;53.366;6.636;2022-08-19T12:43:25;27.30;99.90
52941;DHT22;62001;53.366;6.636;2022-08-19T12:45:51;27.30;99.90
52941;DHT22;62001;53.366;6.636;2022-08-19T12:48:17;27.30;99.90
52941;DHT22;62001;53.366;6.636;2022-08-19T12:50:44;27.30;99.90
52941;DHT22;62001;53.366;6.636;2022-08-19T12:53:16;27.30;99.90
52941;DHT22;62001;53.366;6.636;2022-08-19T12:55:42;27.30;99.90
52941;DHT22;62001;53.366;6.636;2022-08-19T12:58:09;27.30;99.90
52941;DHT22;62001;53.366;6.636;2022-08-19T13:00:35;27.30;99.90
52941;DHT22;62001;53.366;6.636;2022-08-19T13:03:01;27.30;99.90
52941;DHT22;62001;53.366;6.636;2022-08-19T13:05:31;27.20;99.90
52941;DHT22;62001;53.366;6.636;2022-08-19T13:08:00;27.10;99.90
52941;DHT22;62001;53.366;6.636;2022-08-19T13:10:29;26.90;99.90
52941;DHT22;62001;53.366;6.636;2022-08-19T13:12:56;26.50;99.90
52941;DHT22;62001;53.366;6.636;2022-08-19T13:15:23;26.10;99.90
52941;DHT22;62001;53.366;6.636;2022-08-19T13:17:51;25.60;99.90
52941;DHT22;62001;53.366;6.636;2022-08-19T13:20:19;25.30;99.90
52941;DHT22;62001;53.366;6.636;2022-08-19T13:22:45;25.00;99.90
52941;DHT22;62001;53.366;6.636;2022-08-19T13:25:12;24.80;99.90
52941;DHT22;62001;53.366;6.636;2022-08-19T13:27:39;24.60;99.90
52941;DHT22;62001;53.366;6.636;2022-08-19T13:30:09;24.40;99.90
52941;DHT22;62001;53.366;6.636;2022-08-19T13:32:54;24.30;99.90
52941;DHT22;62001;53.366;6.636;2022-08-19T13:35:41;24.00;99.90
52941;DHT22;62001;53.366;6.636;2022-08-19T13:38:08;23.90;99.90
52941;DHT22;62001;53.366;6.636;2022-08-19T13:40:34;23.70;99.90
52941;DHT22;62001;53.366;6.636;2022-08-19T13:43:04;23.60;99.90
52941;DHT22;62001;53.366;6.636;2022-08-19T13:45:33;23.50;99.90
52941;DHT22;62001;53.366;6.636;2022-08-19T13:48:00;23.30;99.90
52941;DHT22;62001;53.366;6.636;2022-08-19T13:50:30;23.20;99.90
52941;DHT22;62001;53.366;6.636;2022-08-19T13:52:59;23.00;99.90
52941;DHT22;62001;53.366;6.636;2022-08-19T13:55:26;22.90;99.90
52941;DHT22;62001;53.366;6.636;2022-08-19T13:57:53;22.80;99.90
52941;DHT22;62001;53.366;6.636;2022-08-19T14:00:20;22.70;99.90
52941;DHT22;62001;53.366;6.636;2022-08-19T14:02:49;22.70;99.90
52941;DHT22;62001;53.366;6.636;2022-08-19T14:05:17;22.50;99.90
52941;DHT22;62001;53.366;6.636;2022-08-19T14:07:44;22.60;99.90
52941;DHT22;62001;53.366;6.636;2022-08-19T14:10:12;22.60;99.90
52941;DHT22;62001;53.366;6.636;2022-08-19T14:12:38;22.60;99.90
52941;DHT22;62001;53.366;6.636;2022-08-19T14:15:06;22.70;99.90
52941;DHT22;62001;53.366;6.636;2022-08-19T14:17:33;22.80;99.90
52941;DHT22;62001;53.366;6.636;2022-08-19T14:20:05;22.80;99.90
52941;DHT22;62001;53.366;6.636;2022-08-19T14:22:36;22.90;99.90
52941;DHT22;62001;53.366;6.636;2022-08-19T14:25:08;22.90;99.90
52941;DHT22;62001;53.366;6.636;2022-08-19T14:27:35;22.90;99.90
52941;DHT22;62001;53.366;6.636;2022-08-19T14:30:02;22.90;99.90
52941;DHT22;62001;53.366;6.636;2022-08-19T14:32:28;22.90;99.90
52941;DHT22;62001;53.366;6.636;2022-08-19T14:34:54;22.90;99.90
52941;DHT22;62001;53.366;6.636;2022-08-19T14:37:20;23.00;99.90
52941;DHT22;62001;53.366;6.636;2022-08-19T14:39:48;23.10;99.90
52941;DHT22;62001;53.366;6.636;2022-08-19T14:42:15;23.10;99.90
52941;DHT22;62001;53.366;6.636;2022-08-19T14:44:42;23.20;99.90
52941;DHT22;62001;53.366;6.636;2022-08-19T14:47:08;23.20;99.90
52941;DHT22;62001;53.366;6.636;2022-08-19T14:49:34;23.20;99.90
52941;DHT22;62001;53.366;6.636;2022-08-19T14:52:00;23.20;99.90
52941;DHT22;62001;53.366;6.636;2022-08-19T14:54:26;23.40;99.90
52941;DHT22;62001;53.366;6.636;2022-08-19T14:56:52;23.30;99.90
52941;DHT22;62001;53.366;6.636;2022-08-19T14:59:18;23.20;99.90
52941;DHT22;62001;53.366;6.636;2022-08-19T15:01:44;23.10;99.90
52941;DHT22;62001;53.366;6.636;2022-08-19T15:04:13;23.00;99.90
52941;DHT22;62001;53.366;6.636;2022-08-19T15:06:40;22.90;99.90
52941;DHT22;62001;53.366;6.636;2022-08-19T15:09:08;22.90;99.90
52941;DHT22;62001;53.366;6.636;2022-08-19T15:11:35;22.90;99.90
52941;DHT22;62001;53.366;6.636;2022-08-19T15:14:01;23.00;99.90
52941;DHT22;62001;53.366;6.636;2022-08-19T15:16:27;23.10;99.90
52941;DHT22;62001;53.366;6.636;2022-08-19T15:18:56;23.20;99.90
52941;DHT22;62001;53.366;6.636;2022-08-19T15:21:23;23.20;99.90
52941;DHT22;62001;53.366;6.636;2022-08-19T15:23:50;23.20;99.90
52941;DHT22;62001;53.366;6.636;2022-08-19T15:26:18;23.30;99.90
52941;DHT22;62001;53.366;6.636;2022-08-19T15:28:44;23.40;99.90
52941;DHT22;62001;53.366;6.636;2022-08-19T15:31:10;23.30;99.90
52941;DHT22;62001;53.366;6.636;2022-08-19T15:33:38;23.10;99.90
52941;DHT22;62001;53.366;6.636;2022-08-19T15:36:07;23.00;99.90
52941;DHT22;62001;53.366;6.636;2022-08-19T15:38:34;22.90;99.90
52941;DHT22;62001;53.366;6.636;2022-08-19T15:41:03;22.90;99.90
52941;DHT22;62001;53.366;6.636;2022-08-19T15:43:51;22.80;99.90
52941;DHT22;62001;53.366;6.636;2022-08-19T15:46:20;22.90;99.90
52941;DHT22;62001;53.366;6.636;2022-08-19T15:48:47;22.90;99.90